Weather observations for the past three days for
Hamilton Municipal Airport
Metric (Imperial)
Date Time (cdt) Wind (kph) Vis. (km) Weather Sky Cond. Temperature (ºC) Relative Humidity Wind Chill (°C) Heat Index (°C) Pressure Precipitation (cm)
Air Dwpt 6 hour altimeter (cm) sea level (mb) 1 hr 3 hr 6 hr
Max. Min.
02 18:35 NE 6 16.09 Mostly Cloudy BKN085 23 6 33% 76.5 0.0
02 18:15 Vrbl 4 16.09 Overcast OVC085 23 5 31% 76.5 0.0
02 17:55 Vrbl 4 16.09 Partly Cloudy SCT085 22 5 33% 76.5 0.0
02 17:35 Vrbl 6 16.09 Fair CLR 22 6 36% 76.5 0.0
02 17:15 N 4 16.09 Fair CLR 22 6 36% 76.5 0.0
02 16:55 N 6 16.09 Fair CLR 21 7 40% 76.53 0.0
02 16:35 Vrbl 4 16.09 Fair CLR 23 5 31% 76.53 0.0
02 16:15 NE 15 16.09 A Few Clouds FEW070 23 6 33% 76.56 0.0
02 15:35 Vrbl 11 16.09 Fair CLR 23 7 36% 76.58 0.0
02 15:15 Vrbl 7 16.09 Fair CLR 23 6 33% 76.61 0.0
02 14:55 Vrbl 7 16.09 Fair CLR 22 5 33% 76.61 0.0
02 14:35 NE 9 16.09 Fair CLR 22 5 33% 76.63 0.0
02 14:15 NE 11 16.09 Fair CLR 22 6 36% 76.63 0.0
02 13:35 N 15 G 30 16.09 A Few Clouds FEW060 21 7 40% 76.66 0.0
02 13:15 N 17 16.09 Fair CLR 22 8 41% 76.68 0.0
02 12:55 Vrbl 7 16.09 Fair CLR 21 8 20.7 8.2 43% 76.71 0.0
02 12:35 N 15 16.09 Fair CLR 20 8 46% 76.73 0.0
02 12:15 Vrbl 11 16.09 Fair CLR 20 8 46% 76.76 0.0
02 11:55 Vrbl 6 16.09 Fair CLR 19 8 49% 76.76 0.0
02 11:35 Vrbl 9 16.09 Fair CLR 19 9 52% 76.76 0.0
02 11:15 NW 7 16.09 Fair CLR 19 10 56% 76.76 0.0
02 10:35 NW 15 16.09 Fair CLR 18 10 60% 76.73 0.0
02 10:15 NW 19 16.09 Fair CLR 17 10 64% 76.76 0.0
02 09:55 NW 15 16.09 Fair CLR 17 10 64% 76.73 0.0
02 09:35 NW 15 16.09 Fair CLR 16 11 72% 76.73 0.0
02 09:15 NW 15 16.09 Fair CLR 15 11 77% 76.71 0.0
02 08:55 NW 15 16.09 Fair CLR 13 11 88% 76.71 0.0
02 08:35 NW 15 16.09 Fair CLR 12 11 94% 76.71 0.0
02 07:55 NW 9 14.48 Fair CLR 10 10 100% 9 76.68 0.0
02 07:35 NW 7 14.48 Fair CLR 9 9 100% 8 76.66 0.0
02 07:15 NW 13 12.87 Fair CLR 9 9 100% 7 76.61 0.0
02 06:55 NW 13 12.87 Fair CLR 8 8 10.1 7.4 100% 6 76.58 0.0
02 06:35 NW 13 12.87 Fair CLR 8 8 100% 6 76.58 0.0
02 06:15 NW 11 12.87 Fair CLR 8 8 100% 6 76.56 0.0
02 05:55 NW 13 12.87 Fair CLR 8 8 100% 6 76.53 0.0
02 05:35 NW 15 14.48 Fair CLR 8 8 100% 6 76.5 0.0
02 05:15 NW 11 14.48 Fair CLR 8 8 100% 6 76.48 0.0
02 04:55 NW 9 16.09 Fair CLR 8 8 100% 7 76.48 0.0
02 04:35 NW 11 16.09 Fair CLR 8 8 100% 6 76.48 0.0
02 04:15 NW 11 16.09 Fair CLR 8 8 100% 6 76.48 0.0
02 03:55 NW 9 16.09 Fair CLR 8 8 100% 7 76.48 0.0
02 03:35 W 9 16.09 Fair CLR 9 9 100% 8 76.48 0.0
02 03:15 NW 9 16.09 Fair CLR 9 9 100% 8 76.48 0.0
02 02:55 NW 11 16.09 Fair CLR 9 9 100% 8 76.48 0.0
02 02:15 NW 11 16.09 Fair CLR 9 9 100% 8 76.5 0.0
02 01:55 N 9 16.09 Fair CLR 9 9 100% 8 76.48 0.0
02 01:35 N 4 16.09 Partly Cloudy SCT046 9 9 100% 76.48 0.0
02 01:15 NW 13 16.09 Mostly Cloudy BKN046 10 10 100% 8 76.5 0.0
02 00:55 NW 11 16.09 Fair CLR 10 10 14.6 9.5 100% 9 76.5 0.0
02 00:35 NW 6 16.09 Fair CLR 10 10 100% 76.48 0.0
02 00:15 NW 7 16.09 A Few Clouds FEW044 10 10 100% 9 76.5 0.0
01 23:55 N 7 16.09 Partly Cloudy FEW044 SCT095 10 10 100% 9 76.48 0.0
01 23:35 N 9 16.09 Mostly Cloudy BKN095 11 11 100% 76.48 0.0
01 23:15 NE 6 16.09 Overcast OVC095 12 11 94% 76.45 0.0
01 22:55 N 7 16.09 Overcast FEW045 OVC095 11 11 100% 76.48 0.0
01 22:35 N 6 16.09 Overcast OVC095 11 10 94% 76.45 0.0
01 22:15 N 7 16.09 Mostly Cloudy BKN095 12 10 88% 76.43 0.0
01 21:55 NE 4 16.09 Partly Cloudy SCT095 12 10 88% 76.4 0.0
01 21:35 NE 9 16.09 Mostly Cloudy SCT065 BKN095 12 10 88% 76.4 0.0
01 21:15 NE 9 16.09 Overcast OVC065 12 10 88% 76.4 0.0
01 20:55 N 11 16.09 Mostly Cloudy BKN065 12 11 94% 76.38 0.0
01 20:35 NE 13 16.09 Fair CLR 13 10 82% 76.35 0.0
01 20:15 N 7 16.09 Fair CLR 13 11 88% 76.33 0.0
01 19:55 NE 6 16.09 A Few Clouds FEW085 14 11 82% 76.28 0.0
01 19:35 NE 11 16.09 Overcast OVC095 14 11 82% 76.25 0.0
01 19:15 NE 13 16.09 Overcast OVC095 14 11 82% 76.25 0.0
01 18:55 NE 13 16.09 Overcast OVC095 14 10 14.7 11.9 77% 76.23 0.0
01 18:35 NE 15 16.09 Mostly Cloudy BKN095 15 10 72% 76.17 0.0
01 18:15 NE 19 16.09 A Few Clouds FEW095 14 10 77% 76.15 0.0
01 17:55 NE 24 16.09 Fair CLR 14 10 77% 76.1 0.0
01 17:35 N 19 16.09 A Few Clouds FEW070 FEW090 14 11 82% 76.12 0.0
01 17:15 N 22 G 31 16.09 Mostly Cloudy FEW042 BKN070 BKN080 14 11 82% 76.12 0.0
01 16:55 N 26 16.09 Mostly Cloudy BKN042 BKN060 13 11 88% 76.15 0.0
01 16:35 N 20 11.27 Light Rain OVC040 13 12 94% 76.15 0.0
01 16:15 N 20 14.48 Light Rain FEW018 OVC038 13 12 94% 76.17 0.0
01 15:55 N 28 G 35 16.09 Overcast FEW018 BKN029 OVC034 14 12 88% 76.15 0.0
01 15:35 NE 31 G 43 16.09 Overcast OVC029 13 11 88% 76.17 0.0
01 15:15 NE 31 G 41 16.09 Overcast SCT018 SCT026 OVC031 13 11 88% 76.17 0.0
01 14:55 N 35 G 44 16.09 Overcast and Breezy OVC018 13 12 94% 76.15 0.0
01 14:35 N 28 G 33 16.09 Overcast OVC023 13 12 94% 76.15 0.0
01 14:15 NE 17 16.09 Overcast OVC026 13 12 94% 76.17 0.0
01 13:55 NE 17 16.09 Light Rain SCT020 OVC026 12 12 100% 76.2 0.0
01 13:35 NE 17 G 31 16.09 Overcast OVC018 12 11 94% 76.23 0.0
01 13:15 N 17 G 31 12.87 Light Rain OVC018 12 12 100% 76.2 0.0
01 12:55 NE 19 16.09 Overcast FEW010 BKN015 OVC022 12 12 13.1 11.9 100% 76.23 0.0
01 12:35 NE 15 16.09 Overcast BKN012 OVC019 12 12 100% 76.2 0.0
01 12:15 NE 22 G 35 16.09 Overcast BKN010 OVC015 12 12 100% 76.2 0.0
01 11:55 NE 20 G 33 16.09 Overcast FEW008 OVC013 13 13 100% 76.15 0.0
01 11:35 NE 20 14.48 Light Drizzle BKN011 OVC020 13 13 100% 76.17 0.0
01 11:15 NE 24 G 31 16.09 Overcast FEW010 SCT015 OVC020 13 13 100% 76.17 0.0
01 10:55 NE 20 G 37 16.09 Overcast BKN013 BKN019 OVC024 12 12 100% 76.2 0.0
01 10:35 NE 22 16.09 Overcast BKN005 BKN011 OVC024 12 12 100% 76.2 0.0
01 10:15 NE 24 G 33 14.48 Overcast OVC005 12 12 100% 76.17 0.0
01 09:55 NE 19 G 31 14.48 Overcast OVC005 12 12 100% 76.15 0.0 0.03
01 09:35 NE 20 G 30 14.48 Overcast OVC005 12 12 100% 76.12 0.0
01 09:15 NE 15 14.48 Overcast OVC005 12 12 100% 76.17 0.0
01 08:55 E 15 14.48 Overcast BKN005 OVC110 12 12 100% 76.15 0.0 0.23
01 08:35 E 20 G 33 11.27 Light Rain Fog/Mist BKN005 BKN014 OVC110 12 12 100% 76.12 0.0
01 08:15 NE 20 G 35 4.83 Rain Fog/Mist OVC007 12 12 100% 76.1 0.0
01 07:55 NE 11 6.44 Rain Fog/Mist OVC007 12 12 100% 76.25 0.0 0.1
01 07:35 NE 11 9.66 Light Drizzle Fog/Mist BKN007 BKN011 OVC018 13 13 100% 76.17 0.0
01 07:15 NE 17 G 31 6.44 Light Rain Fog/Mist OVC009 12 12 100% 76.12 0.0
01 06:55 NE 17 8.05 Light Rain Fog/Mist OVC005 12 12 13.9 12.4 100% 76.12 0.0 0.13
01 06:35 NE 15 G 28 4.02 Light Rain Fog/Mist OVC003 13 13 100% 76.15 0.0
01 06:15 NE 13 G 28 4.83 Light Rain Fog/Mist OVC003 12 12 100% 76.15 0.0
01 05:55 NE 20 G 26 3.22 Light Drizzle Fog/Mist OVC003 13 13 100% 76.1 0.0
01 05:35 NE 19 G 28 3.22 Fog/Mist OVC003 13 13 100% 76.07 0.0
01 05:15 NE 17 3.22 Fog/Mist OVC003 13 13 100% 76.1 0.0
01 04:55 NE 20 G 28 6.44 Fog/Mist OVC003 13 13 100% 76.1 0.0 0.03
01 04:35 NE 19 G 28 8.05 Light Drizzle Fog/Mist OVC003 13 13 100% 76.1 0.0
01 04:15 NE 19 2.82 Light Rain Fog/Mist OVC003 13 13 100% 76.1 0.0
01 03:55 E 17 2.82 Light Drizzle Fog/Mist OVC003 13 13 100% 76.12 0.0
01 03:35 NE 20 3.22 Fog/Mist OVC003 13 13 100% 76.12 0.0
01 03:15 NE 13 11.27 Fog/Mist OVC005 14 14 100% 76.12 0.0
01 02:55 NE 15 8.05 Fog/Mist OVC003 14 14 100% 76.15 0.0
01 02:35 NE 11 6.44 Fog/Mist OVC003 14 14 100% 76.15 0.0
01 02:15 NE 19 6.44 Fog/Mist OVC003 14 14 100% 76.15 0.0
01 01:55 NE 15 G 28 6.44 Fog/Mist OVC003 14 14 100% 76.15 0.0
01 01:35 NE 15 G 31 8.05 Thunderstorm in Vicinity Fog/Mist OVC003 14 14 100% 76.12 0.0
01 01:15 NE 19 4.83 Thunderstorm in Vicinity Fog/Mist OVC003 14 14 100% 76.1 0.0
01 00:55 NE 19 3.22 Fog/Mist OVC003 14 14 15.8 13.7 100% 76.12 0.0
01 00:35 NE 22 G 30 4.02 Fog/Mist OVC003 14 14 100% 76.15 0.0
01 00:15 NE 15 4.83 Fog/Mist OVC003 14 14 100% 76.2 0.0
30 23:55 NE 17 3.22 Fog/Mist OVC003 14 14 100% 76.15 0.0
30 23:35 NE 13 3.22 Fog/Mist OVC003 14 14 100% 76.2 0.0
30 23:15 NE 13 4.02 Fog/Mist OVC003 14 14 100% 76.17 0.0
30 22:55 NE 11 12.87 Overcast OVC003 14 14 100% 76.17 0.0
30 22:35 NE 13 14.48 Overcast OVC003 14 14 100% 76.17 0.0
30 22:15 NE 13 12.87 Overcast OVC003 15 14 94% 76.17 0.0
30 21:55 NE 11 14.48 Overcast OVC003 15 15 100% 76.12 0.0
30 21:35 NE 11 16.09 Overcast OVC003 15 15 100% 76.15 0.0
30 21:15 NE 11 11.27 Overcast OVC003 14 14 100% 76.1 0.0
30 20:55 NE 20 G 28 16.09 Overcast OVC003 14 14 100% 76.05 0.0
30 20:35 NE 20 9.66 Fog/Mist OVC003 15 15 100% 76 0.0
30 20:15 NE 15 12.87 Overcast OVC003 15 15 100% 76 0.0
30 19:55 NE 17 9.66 Fog/Mist OVC003 16 15 94% 75.97 0.0 0.03
30 19:35 N 19 6.44 Fog/Mist OVC003 16 16 100% 76 0.0
30 19:15 N 19 4.83 Fog/Mist OVC003 16 16 100% 75.97 0.0
30 18:35 NE 13 2.82 Light Drizzle Fog/Mist OVC003 16 16 100% 76 0.0
30 18:15 N 11 3.22 Light Drizzle Fog/Mist OVC003 16 16 100% 76 0.0
30 17:55 N 11 3.22 Fog/Mist OVC003 16 16 100% 76.02 0.0
30 17:35 N 6 6.44 Fog/Mist OVC003 16 16 100% 76 0.0
30 17:15 NE 15 8.05 Fog/Mist OVC003 16 16 100% 75.95 0.0
30 16:55 NE 13 11.27 Overcast OVC003 16 16 100% 75.9 0.0
30 16:35 NE 15 12.87 Overcast OVC003 16 16 100% 75.9 0.0
30 16:15 N 17 16.09 Overcast OVC003 16 16 100% 75.95 0.0
30 15:55 NE 13 9.66 Fog/Mist OVC003 16 16 100% 75.95 0.0
30 15:35 SE 7 6.44 Fog/Mist OVC003 15 15 100% 76 0.0
30 15:15 Vrbl 7 1.61 Fog/Mist OVC003 15 15 100% 76.02 0.0
30 14:55 E 11 4.02 Fog/Mist OVC003 15 15 100% 75.97 0.0
30 14:35 NE 15 4.83 Fog/Mist OVC003 15 15 100% 76 0.0
30 14:15 NE 19 9.66 Fog/Mist OVC003 15 15 100% 76 0.0
30 13:55 NE 17 11.27 Overcast OVC003 15 15 100% 76 0.0
30 13:35 E 7 14.48 Overcast OVC003 15 15 100% 76.02 0.0
30 13:15 NE 13 16.09 Overcast OVC003 15 15 100% 76.02 0.0
30 12:55 NE 13 16.09 Light Drizzle OVC003 15 15 15.7 14.7 100% 76 0.0 0.08
30 12:35 E 11 9.66 Light Rain Fog/Mist OVC003 15 15 100% 75.95 0.0
30 12:15 NE 11 12.87 Overcast OVC003 15 15 100% 76.05 0.0
30 11:55 E 22 G 30 8.05 Light Rain Fog/Mist OVC003 15 15 100% 75.95 0.0 0.28
30 11:35 E 19 8.05 Light Rain Fog/Mist BKN003 BKN070 15 15 100% 76 0.0
30 11:15 E 15 6.44 Rain Fog/Mist FEW003 FEW070 15 15 100% 76.1 0.0
30 10:55 SE 11 4.83 Heavy Rain Fog/Mist FEW003 15 15 100% 76.17 0.0 0.41
30 10:35 NE 15 6.44 Rain Fog/Mist FEW011 FEW018 15 15 100% 76.1 0.0
30 10:15 NE 17 6.44 Rain Fog/Mist BKN006 BKN011 BKN018 15 15 100% 76.12 0.0
30 09:55 N 9 8.05 Light Rain Fog/Mist OVC006 15 15 100% 76.17 0.0 0.13
30 09:35 N 15 12.87 Light Rain OVC004 15 15 100% 76.2 0.0
30 09:15 NE 11 8.05 Light Rain Fog/Mist OVC004 15 15 100% 76.12 0.0
30 08:55 NE 20 11.27 Light Rain Fog/Mist OVC004 15 15 100% 76.07 0.0 0.03
30 08:35 NE 17 8.05 Fog/Mist OVC004 15 15 100% 76.02 0.0
30 08:15 N 17 4.83 Light Rain Fog/Mist OVC004 15 15 100% 76.05 0.0
30 07:55 N 15 3.22 Fog/Mist OVC004 15 15 100% 76.05 0.0
30 07:35 N 15 4.83 Fog/Mist OVC004 15 15 100% 76.07 0.0
30 07:15 NE 13 6.44 Fog/Mist OVC004 15 15 100% 76.02 0.0
30 06:55 N 7 9.66 Fog/Mist OVC006 15 15 15.1 13.8 100% 76 0.0
30 06:35 NE 13 11.27 Fog/Mist OVC008 15 15 100% 75.97 0.0
30 06:15 NE 13 16.09 Overcast OVC008 15 15 100% 75.97 0.0
30 05:55 NE 13 16.09 Overcast OVC008 15 15 100% 75.95 0.0
30 05:35 NE 11 16.09 Overcast BKN010 OVC014 15 15 100% 76 0.0
30 05:15 N 13 16.09 Overcast OVC014 15 15 100% 76 0.0
30 04:55 N 9 16.09 Overcast OVC012 15 15 100% 76 0.0
30 04:35 N 7 16.09 Overcast OVC012 15 14 94% 76.02 0.0
30 04:15 N 7 16.09 Overcast OVC014 15 14 94% 76.02 0.0
30 03:55 N 6 16.09 Overcast OVC014 15 14 94% 76.05 0.0
30 03:35 N 11 16.09 Overcast BKN016 OVC026 14 14 100% 76.02 0.0
30 03:15 N 15 16.09 Overcast BKN020 OVC026 14 14 100% 76 0.0
30 02:55 N 11 16.09 Overcast SCT014 OVC020 14 14 100% 75.97 0.0
30 02:35 NE 17 16.09 Overcast BKN014 OVC020 14 14 100% 76 0.0
30 02:15 N 15 16.09 Overcast FEW014 OVC020 14 14 100% 76.05 0.0
30 01:55 NE 7 16.09 Overcast OVC020 14 14 100% 76.1 0.0
30 01:35 N 6 16.09 Overcast OVC020 14 14 100% 76.12 0.0
30 01:15 NE 7 14.48 Overcast FEW011 OVC020 14 14 100% 76.12 0.0
30 00:55 NE 13 9.66 Fog/Mist BKN011 OVC020 14 14 16 13.8 100% 76.12 0.0
30 00:35 NE 17 12.87 Overcast OVC011 14 14 100% 76.15 0.0
30 00:15 N 19 12.87 Overcast OVC011 14 14 100% 76.17 0.0
29 23:55 NE 26 G 35 16.09 Overcast OVC013 14 13 94% 76.15 0.0
29 23:35 N 24 G 35 16.09 Overcast OVC015 15 13 88% 76.17 0.0
29 23:15 N 20 G 30 16.09 Overcast OVC017 15 14 94% 76.17 0.0
29 22:55 N 22 16.09 Overcast OVC017 15 14 94% 76.2 0.0
29 22:35 N 19 16.09 Overcast OVC015 15 14 94% 76.17 0.0
29 22:15 NE 19 G 33 16.09 Overcast OVC015 15 14 94% 76.07 0.0
29 21:55 NE 19 16.09 Overcast OVC015 15 14 94% 76.05 0.0
29 21:35 N 17 16.09 Overcast OVC017 15 14 94% 76.12 0.0
29 21:15 NE 19 16.09 Overcast OVC017 15 14 94% 76.1 0.0
29 20:55 N 15 16.09 Overcast OVC017 15 14 94% 76.1 0.0
29 20:35 N 13 16.09 Overcast OVC017 15 14 94% 76.07 0.0
29 20:15 N 17 16.09 Overcast OVC017 16 15 94% 76.05 0.0
29 19:55 NE 11 16.09 Overcast OVC017 16 15 94% 76.02 0.0
29 19:35 N 17 16.09 Overcast OVC015 16 15 94% 76.07 0.0
29 19:15 NE 11 16.09 Overcast OVC015 16 15 94% 75.97 0.0
29 18:55 N 13 14.48 Overcast OVC015 16 15 15.8 13.7 94% 76 0.0
Date Time (cdt) Wind (kph) Vis. (km) Weather Sky Cond. Air Dwpt Max. Min. Relative Humidity Wind Chill (°C) Heat Index (°C) altimeter (cm) sea level (mb) 1 hr 3 hr 6 hr
6 hour
Temperature (ºC) Pressure Precipitation (cm)